createdAt,value
2018-12-13T00:00:31.081Z,1012.84
2018-12-13T00:01:11.485Z,1012.86
2018-12-13T00:01:51.863Z,1012.86
2018-12-13T00:02:32.232Z,1012.83
2018-12-13T00:04:24.570Z,1012.82
2018-12-13T00:05:04.996Z,1012.82
2018-12-13T00:05:45.408Z,1012.79
2018-12-13T00:06:25.860Z,1012.82
2018-12-13T00:07:06.244Z,1012.78
2018-12-13T00:07:46.631Z,1012.77
2018-12-13T00:08:27.080Z,1012.79
2018-12-13T00:09:07.468Z,1012.77
2018-12-13T00:09:47.881Z,1012.77
2018-12-13T00:10:28.292Z,1012.78
2018-12-13T00:11:08.684Z,1012.81
2018-12-13T00:11:49.075Z,1012.74
2018-12-13T00:12:29.479Z,1012.73
2018-12-13T00:13:09.854Z,1012.76
2018-12-13T00:13:50.246Z,1012.77
2018-12-13T00:14:30.638Z,1012.74
2018-12-13T00:15:11.045Z,1012.72
2018-12-13T00:15:51.483Z,1012.74
2018-12-13T00:16:32.789Z,1012.73
2018-12-13T00:17:12.326Z,1012.7
2018-12-13T00:17:52.731Z,1012.72
2018-12-13T00:18:33.100Z,1012.71
2018-12-13T00:19:13.509Z,1012.69
2018-12-13T00:19:53.887Z,1012.64
2018-12-13T00:22:21.634Z,1012.63
2018-12-13T00:23:02.026Z,1012.61
2018-12-13T00:23:42.409Z,1012.67
2018-12-13T00:24:22.814Z,1012.63
2018-12-13T00:25:03.198Z,1012.63
2018-12-13T00:25:43.590Z,1012.61
2018-12-13T00:26:24.006Z,1012.61
2018-12-13T00:28:39.018Z,1012.61
2018-12-13T00:29:19.136Z,1012.62
2018-12-13T00:29:59.568Z,1012.64
2018-12-13T00:30:39.884Z,1012.63
2018-12-13T00:31:20.260Z,1012.61
2018-12-13T00:32:00.666Z,1012.63
2018-12-13T00:32:41.065Z,1012.65
2018-12-13T00:33:21.430Z,1012.62
2018-12-13T00:34:01.840Z,1012.62
2018-12-13T00:34:42.286Z,1012.59
2018-12-13T00:35:22.683Z,1012.58
2018-12-13T00:36:03.100Z,1012.59
2018-12-13T00:36:43.500Z,1012.61
2018-12-13T00:37:23.838Z,1012.62
2018-12-13T00:38:04.226Z,1012.62
2018-12-13T00:38:44.623Z,1012.58
2018-12-13T00:39:25.012Z,1012.58
2018-12-13T00:40:05.425Z,1012.59
2018-12-13T00:40:45.809Z,1012.56
2018-12-13T00:41:26.229Z,1012.55
2018-12-13T00:42:06.589Z,1012.57
2018-12-13T00:42:46.953Z,1012.56
2018-12-13T00:43:27.449Z,1012.55
2018-12-13T00:44:07.773Z,1012.51
2018-12-13T00:44:48.142Z,1012.53
2018-12-13T00:45:28.525Z,1012.54
2018-12-13T00:46:08.923Z,1012.52
2018-12-13T00:46:49.320Z,1012.53
2018-12-13T00:47:29.700Z,1012.52
2018-12-13T00:48:10.082Z,1012.52
2018-12-13T00:48:50.459Z,1012.52
2018-12-13T00:49:30.873Z,1012.49
2018-12-13T00:50:11.300Z,1012.49
2018-12-13T00:50:51.682Z,1012.5
2018-12-13T00:51:32.055Z,1012.46
2018-12-13T00:52:12.497Z,1012.5
2018-12-13T00:52:52.813Z,1012.45
2018-12-13T00:53:33.262Z,1012.48
2018-12-13T00:54:13.610Z,1012.46
2018-12-13T00:54:53.994Z,1012.47
2018-12-13T00:55:34.498Z,1012.49
2018-12-13T00:56:14.873Z,1012.48
2018-12-13T00:56:55.263Z,1012.48
2018-12-13T00:57:35.635Z,1012.5
2018-12-13T00:58:16.008Z,1012.51
2018-12-13T00:58:56.431Z,1012.5
2018-12-13T00:59:36.832Z,1012.49
2018-12-13T01:00:17.272Z,1012.46
2018-12-13T01:00:57.682Z,1012.54
2018-12-13T01:01:38.011Z,1012.52
2018-12-13T01:02:18.455Z,1012.52
2018-12-13T01:02:58.767Z,1012.51
2018-12-13T01:03:39.154Z,1012.52
2018-12-13T01:04:19.586Z,1012.49
2018-12-13T01:04:59.978Z,1012.44
2018-12-13T01:05:40.685Z,1012.48
2018-12-13T01:06:20.749Z,1012.48
2018-12-13T01:07:01.147Z,1012.48
2018-12-13T01:07:41.547Z,1012.47
2018-12-13T01:08:21.930Z,1012.45
2018-12-13T01:09:02.334Z,1012.47
2018-12-13T01:09:42.779Z,1012.42
2018-12-13T01:10:23.234Z,1012.46
2018-12-13T01:11:03.726Z,1012.44
2018-12-13T01:11:43.968Z,1012.45
2018-12-13T01:12:24.433Z,1012.45
2018-12-13T01:13:04.743Z,1012.48
2018-12-13T01:13:45.143Z,1012.48
2018-12-13T01:14:25.545Z,1012.44
2018-12-13T01:15:05.905Z,1012.43
2018-12-13T01:15:46.320Z,1012.45
2018-12-13T01:16:26.681Z,1012.45
2018-12-13T01:17:08.977Z,1012.47
2018-12-13T01:17:49.424Z,1012.45
2018-12-13T01:18:29.787Z,1012.42
2018-12-13T01:19:11.027Z,1012.44
2018-12-13T01:19:51.532Z,1012.4
2018-12-13T01:20:31.910Z,1012.41
2018-12-13T01:21:12.343Z,1012.39
2018-12-13T01:21:52.680Z,1012.38
2018-12-13T01:22:33.057Z,1012.37
2018-12-13T01:23:13.504Z,1012.32
2018-12-13T01:23:53.923Z,1012.34
2018-12-13T01:24:34.315Z,1012.35
2018-12-13T01:25:14.661Z,1012.33
2018-12-13T01:25:55.089Z,1012.3
2018-12-13T01:26:35.504Z,1012.32
2018-12-13T01:27:15.883Z,1012.33
2018-12-13T01:27:56.261Z,1012.34
2018-12-13T01:28:36.829Z,1012.34
2018-12-13T01:29:17.108Z,1012.34
2018-12-13T01:29:57.520Z,1012.35
2018-12-13T01:30:37.936Z,1012.36
2018-12-13T01:31:18.265Z,1012.33
2018-12-13T01:31:58.678Z,1012.29
2018-12-13T01:32:39.104Z,1012.35
2018-12-13T01:33:19.527Z,1012.31
2018-12-13T01:33:59.934Z,1012.3
2018-12-13T01:34:40.355Z,1012.28
2018-12-13T01:35:20.739Z,1012.34
2018-12-13T01:36:01.112Z,1012.29
2018-12-13T01:36:41.450Z,1012.29
2018-12-13T01:37:21.829Z,1012.29
2018-12-13T01:38:02.228Z,1012.33
2018-12-13T01:38:42.609Z,1012.27
2018-12-13T01:39:23.012Z,1012.33
2018-12-13T01:40:03.406Z,1012.29
2018-12-13T01:40:43.758Z,1012.33
2018-12-13T01:41:24.179Z,1012.3
2018-12-13T01:42:04.601Z,1012.29
2018-12-13T01:42:44.959Z,1012.31
2018-12-13T01:43:25.313Z,1012.3
2018-12-13T01:44:06.679Z,1012.29
2018-12-13T01:44:47.050Z,1012.31
2018-12-13T01:45:27.437Z,1012.29
2018-12-13T01:47:21.808Z,1012.25
2018-12-13T01:48:02.222Z,1012.25
2018-12-13T01:48:42.634Z,1012.23
2018-12-13T01:49:23.006Z,1012.21
2018-12-13T01:50:03.410Z,1012.23
2018-12-13T01:50:43.795Z,1012.21
2018-12-13T01:51:24.197Z,1012.21
2018-12-13T01:52:04.587Z,1012.19
2018-12-13T01:52:44.967Z,1012.23
2018-12-13T01:53:25.353Z,1012.22
2018-12-13T01:54:05.756Z,1012.15
2018-12-13T01:54:46.174Z,1012.17
2018-12-13T01:55:26.544Z,1012.14
2018-12-13T01:56:06.950Z,1012.09
2018-12-13T01:56:47.319Z,1012.1
2018-12-13T01:57:27.712Z,1012.12
2018-12-13T01:58:08.154Z,1012.11
2018-12-13T01:58:48.514Z,1012.06
2018-12-13T01:59:28.936Z,1012.11
2018-12-13T02:00:09.323Z,1012.1
2018-12-13T02:00:49.731Z,1012.07
2018-12-13T02:01:30.159Z,1012.04
2018-12-13T02:02:10.535Z,1012.08
2018-12-13T02:02:50.952Z,1012.04
2018-12-13T02:03:31.334Z,1012.08
2018-12-13T02:05:29.033Z,1012.11
2018-12-13T02:06:09.377Z,1012.07
2018-12-13T02:06:49.811Z,1012.09
2018-12-13T02:07:30.108Z,1012.13
2018-12-13T02:08:10.536Z,1012.06
2018-12-13T02:08:50.966Z,1012.09
2018-12-13T02:09:31.371Z,1012.04
2018-12-13T02:10:11.834Z,1012.04
2018-12-13T02:10:52.177Z,1012.03
2018-12-13T02:11:32.592Z,1012.05
2018-12-13T02:12:12.974Z,1012.03
2018-12-13T02:12:53.372Z,1012.02
2018-12-13T02:13:33.757Z,1011.99
2018-12-13T02:14:14.148Z,1012.01
2018-12-13T02:14:54.593Z,1012.01
2018-12-13T02:15:34.986Z,1012.02
2018-12-13T02:16:15.355Z,1012
2018-12-13T02:16:55.762Z,1012.04
2018-12-13T02:17:36.190Z,1012.04
2018-12-13T02:18:16.581Z,1012.05
2018-12-13T02:18:57.016Z,1012.1
2018-12-13T02:19:37.385Z,1012.08
2018-12-13T02:20:17.788Z,1012.07
2018-12-13T02:20:58.247Z,1012.08
2018-12-13T02:21:38.605Z,1012.1
2018-12-13T02:22:19.110Z,1012.09
2018-12-13T02:22:59.523Z,1012.14
2018-12-13T02:23:39.954Z,1012.1
2018-12-13T02:24:20.375Z,1012.11
2018-12-13T02:25:00.801Z,1012.1
2018-12-13T02:25:41.203Z,1012.12
2018-12-13T02:26:21.600Z,1012.09
2018-12-13T02:27:01.993Z,1012.09
2018-12-13T02:27:42.410Z,1012.08
2018-12-13T02:28:22.796Z,1012.06
2018-12-13T02:29:03.212Z,1012.05
2018-12-13T02:29:43.640Z,1012.05
2018-12-13T02:30:24.047Z,1012.06
2018-12-13T02:31:04.427Z,1012.04
2018-12-13T02:31:44.858Z,1012.04
2018-12-13T02:32:25.247Z,1012
2018-12-13T02:33:05.624Z,1012.01
2018-12-13T02:33:46.068Z,1012.01
2018-12-13T02:34:26.419Z,1012.03
2018-12-13T02:35:06.821Z,1012.02
2018-12-13T02:35:47.209Z,1012.01
2018-12-13T02:36:27.651Z,1011.99
2018-12-13T02:37:08.012Z,1011.98
2018-12-13T02:37:48.469Z,1011.99
2018-12-13T02:38:28.887Z,1011.94
2018-12-13T02:39:09.255Z,1011.95
2018-12-13T02:39:49.682Z,1011.95
2018-12-13T02:40:30.069Z,1011.95
2018-12-13T02:41:10.468Z,1011.96
2018-12-13T02:41:50.915Z,1011.92
2018-12-13T02:42:31.302Z,1011.95
2018-12-13T02:43:11.705Z,1011.96
2018-12-13T02:43:52.486Z,1011.95
2018-12-13T02:44:32.906Z,1011.92
2018-12-13T02:45:13.308Z,1011.94
2018-12-13T02:45:53.698Z,1011.95
2018-12-13T02:46:34.025Z,1011.9
2018-12-13T02:47:14.449Z,1011.91
2018-12-13T02:47:54.832Z,1011.93
2018-12-13T02:48:35.210Z,1011.91
2018-12-13T02:49:15.640Z,1011.91
2018-12-13T02:49:55.999Z,1011.89
2018-12-13T02:50:36.421Z,1011.88
2018-12-13T02:51:16.788Z,1011.89
2018-12-13T02:51:57.167Z,1011.87
2018-12-13T02:52:37.583Z,1011.86
2018-12-13T02:53:17.918Z,1011.86
2018-12-13T02:53:58.321Z,1011.84
2018-12-13T02:54:38.710Z,1011.85
2018-12-13T02:55:19.119Z,1011.87
2018-12-13T02:55:59.547Z,1011.84
2018-12-13T02:56:39.931Z,1011.88
2018-12-13T02:57:20.294Z,1011.85
2018-12-13T02:58:00.717Z,1011.86
2018-12-13T02:58:41.028Z,1011.84
2018-12-13T02:59:21.425Z,1011.83
2018-12-13T03:00:01.836Z,1011.81
2018-12-13T03:00:42.244Z,1011.81
2018-12-13T03:01:22.610Z,1011.79
2018-12-13T03:02:03.013Z,1011.77
2018-12-13T03:02:43.412Z,1011.78
2018-12-13T03:03:23.855Z,1011.79
2018-12-13T03:04:04.230Z,1011.77
2018-12-13T03:04:44.643Z,1011.77
2018-12-13T03:05:25.014Z,1011.78
2018-12-13T03:06:05.428Z,1011.75
2018-12-13T03:06:45.786Z,1011.74
2018-12-13T03:07:26.207Z,1011.78
2018-12-13T03:08:06.553Z,1011.74
2018-12-13T03:08:46.937Z,1011.74
2018-12-13T03:09:27.398Z,1011.67
2018-12-13T03:10:07.733Z,1011.71
2018-12-13T03:10:48.169Z,1011.75
2018-12-13T03:11:28.644Z,1011.76
2018-12-13T03:12:08.971Z,1011.7
2018-12-13T03:12:49.393Z,1011.68
2018-12-13T03:13:29.782Z,1011.67
2018-12-13T03:14:10.118Z,1011.65
2018-12-13T03:14:50.510Z,1011.65
2018-12-13T03:15:30.912Z,1011.65
2018-12-13T03:16:11.352Z,1011.65
2018-12-13T03:16:51.756Z,1011.6
2018-12-13T03:17:32.129Z,1011.62
2018-12-13T03:18:12.557Z,1011.61
2018-12-13T03:18:52.971Z,1011.58
2018-12-13T03:19:33.358Z,1011.6
2018-12-13T03:20:13.765Z,1011.59
2018-12-13T03:20:54.151Z,1011.58
2018-12-13T03:21:34.575Z,1011.6
2018-12-13T03:22:15.034Z,1011.57
2018-12-13T03:22:55.352Z,1011.57
2018-12-13T03:23:35.757Z,1011.58
2018-12-13T03:24:16.206Z,1011.6
2018-12-13T03:24:56.593Z,1011.6
2018-12-13T03:25:36.935Z,1011.59
2018-12-13T03:26:17.320Z,1011.59
2018-12-13T03:26:57.711Z,1011.54
2018-12-13T03:27:38.245Z,1011.58
2018-12-13T03:28:18.599Z,1011.54
2018-12-13T03:28:58.957Z,1011.58
2018-12-13T03:29:39.402Z,1011.56
2018-12-13T03:30:19.745Z,1011.5
2018-12-13T03:31:00.144Z,1011.53
2018-12-13T03:31:40.550Z,1011.49
2018-12-13T03:32:20.991Z,1011.48
2018-12-13T03:33:01.390Z,1011.47
2018-12-13T03:33:41.786Z,1011.47
2018-12-13T03:34:22.215Z,1011.47
2018-12-13T03:35:02.634Z,1011.44
2018-12-13T03:35:42.994Z,1011.44
2018-12-13T03:36:23.401Z,1011.45
2018-12-13T03:37:03.810Z,1011.39
2018-12-13T03:37:44.214Z,1011.42
2018-12-13T03:38:24.601Z,1011.37
2018-12-13T03:39:05.031Z,1011.39
2018-12-13T03:39:45.376Z,1011.39
2018-12-13T03:40:25.789Z,1011.38
2018-12-13T03:41:06.195Z,1011.38
2018-12-13T03:41:46.599Z,1011.37
2018-12-13T03:42:26.970Z,1011.34
2018-12-13T03:43:07.386Z,1011.32
2018-12-13T03:43:47.789Z,1011.35
2018-12-13T03:44:28.159Z,1011.31
2018-12-13T03:45:08.575Z,1011.3
2018-12-13T03:45:48.946Z,1011.31
2018-12-13T03:46:29.368Z,1011.3
2018-12-13T03:47:09.793Z,1011.32
2018-12-13T03:47:50.179Z,1011.32
2018-12-13T03:48:30.570Z,1011.3
2018-12-13T03:49:11.006Z,1011.29
2018-12-13T03:49:51.390Z,1011.33
2018-12-13T03:50:31.775Z,1011.3
2018-12-13T03:51:12.161Z,1011.29
2018-12-13T03:51:52.558Z,1011.29
2018-12-13T03:52:32.987Z,1011.3
2018-12-13T03:53:13.380Z,1011.3
2018-12-13T03:53:53.720Z,1011.26
2018-12-13T03:54:34.135Z,1011.26
2018-12-13T03:55:14.498Z,1011.24
2018-12-13T03:55:54.930Z,1011.26
2018-12-13T03:56:35.299Z,1011.23
2018-12-13T03:57:15.699Z,1011.23
2018-12-13T03:57:56.085Z,1011.26
2018-12-13T03:59:51.747Z,1011.26
2018-12-13T04:00:32.172Z,1011.27
2018-12-13T04:01:12.590Z,1011.27
2018-12-13T04:01:53.013Z,1011.27
2018-12-13T04:02:33.428Z,1011.26
2018-12-13T04:03:13.840Z,1011.28
2018-12-13T04:03:54.259Z,1011.31
2018-12-13T04:04:34.647Z,1011.27
2018-12-13T04:05:15.042Z,1011.27
2018-12-13T04:05:55.440Z,1011.24
2018-12-13T04:06:35.820Z,1011.24
2018-12-13T04:07:16.255Z,1011.27
2018-12-13T04:07:56.591Z,1011.27
2018-12-13T04:08:36.987Z,1011.26
2018-12-13T04:09:17.390Z,1011.26
2018-12-13T04:09:57.813Z,1011.24
2018-12-13T04:10:38.197Z,1011.24
2018-12-13T04:11:18.578Z,1011.2
2018-12-13T04:11:58.968Z,1011.21
2018-12-13T04:12:39.400Z,1011.15
2018-12-13T04:13:19.812Z,1011.17
2018-12-13T04:14:00.211Z,1011.18
2018-12-13T04:14:40.582Z,1011.17
2018-12-13T04:15:20.983Z,1011.14
2018-12-13T04:16:01.401Z,1011.13
2018-12-13T04:16:41.825Z,1011.13
2018-12-13T04:17:22.210Z,1011.14
2018-12-13T04:18:02.607Z,1011.12
2018-12-13T04:18:43.020Z,1011.13
2018-12-13T04:19:23.397Z,1011.13
2018-12-13T04:20:03.794Z,1011.12
2018-12-13T04:20:44.182Z,1011.14
2018-12-13T04:21:24.596Z,1011.14
2018-12-13T04:22:04.986Z,1011.16
2018-12-13T04:22:45.337Z,1011.12
2018-12-13T04:23:25.735Z,1011.13
2018-12-13T04:24:06.104Z,1011.11
2018-12-13T04:24:46.472Z,1011.08
2018-12-13T04:25:26.858Z,1011.08
2018-12-13T04:26:07.269Z,1011.12
2018-12-13T04:26:47.632Z,1011.08
2018-12-13T04:27:28.072Z,1011.04
2018-12-13T05:08:53.235Z,1010.84
2018-12-13T05:09:34.316Z,1010.87
2018-12-13T05:10:14.738Z,1010.83
2018-12-13T05:10:55.117Z,1010.83
2018-12-13T05:11:35.535Z,1010.79
2018-12-13T05:12:15.920Z,1010.79
2018-12-13T05:12:56.317Z,1010.81
2018-12-13T05:13:36.709Z,1010.81
2018-12-13T05:14:17.113Z,1010.83
2018-12-13T05:14:57.508Z,1010.82
2018-12-13T05:15:37.923Z,1010.84
2018-12-13T05:16:18.317Z,1010.85
2018-12-13T05:16:58.682Z,1010.82
2018-12-13T05:17:39.099Z,1010.8
2018-12-13T05:18:19.475Z,1010.85
2018-12-13T05:18:59.910Z,1010.85
2018-12-13T05:19:40.290Z,1010.9
2018-12-13T05:20:20.655Z,1010.87
2018-12-13T05:21:01.065Z,1010.84
2018-12-13T05:21:41.502Z,1010.85
2018-12-13T05:22:21.879Z,1010.83
2018-12-13T05:23:02.269Z,1010.81
2018-12-13T05:23:42.628Z,1010.8
2018-12-13T05:24:23.016Z,1010.79
2018-12-13T05:25:03.417Z,1010.76
2018-12-13T05:25:43.827Z,1010.78
2018-12-13T05:26:24.210Z,1010.77
2018-12-13T05:27:04.603Z,1010.83
2018-12-13T05:27:45.054Z,1010.81
2018-12-13T05:28:25.391Z,1010.73
2018-12-13T05:29:05.775Z,1010.78
2018-12-13T05:29:46.181Z,1010.79
2018-12-13T05:30:26.605Z,1010.79
2018-12-13T05:31:06.975Z,1010.79
2018-12-13T05:31:47.390Z,1010.8
2018-12-13T05:32:27.757Z,1010.79
2018-12-13T05:33:08.195Z,1010.77
2018-12-13T05:33:48.566Z,1010.82
2018-12-13T05:34:39.975Z,1010.81
2018-12-13T05:35:20.697Z,1010.79
2018-12-13T05:36:01.678Z,1010.8
2018-12-13T05:36:42.077Z,1010.78
2018-12-13T05:37:22.540Z,1010.8
2018-12-13T05:38:03.253Z,1010.76
2018-12-13T05:38:44.829Z,1010.75
2018-12-13T05:39:25.285Z,1010.74
2018-12-13T05:40:05.950Z,1010.74
2018-12-13T05:40:46.852Z,1010.75
2018-12-13T05:41:27.783Z,1010.73
2018-12-13T05:42:08.699Z,1010.69
2018-12-13T05:42:49.643Z,1010.74
2018-12-13T05:43:30.170Z,1010.75
2018-12-13T05:44:10.626Z,1010.72
2018-12-13T05:44:51.032Z,1010.7
2018-12-13T05:45:31.404Z,1010.72
2018-12-13T05:46:11.778Z,1010.7
2018-12-13T05:46:52.176Z,1010.71
2018-12-13T05:47:32.623Z,1010.66
2018-12-13T05:48:13.008Z,1010.63
2018-12-13T05:48:54.582Z,1010.61
2018-12-13T05:49:33.804Z,1010.66
2018-12-13T05:50:14.162Z,1010.64
2018-12-13T05:50:54.590Z,1010.67
2018-12-13T05:51:34.960Z,1010.61
2018-12-13T05:52:31.960Z,1010.62
2018-12-13T05:53:12.377Z,1010.59
2018-12-13T05:53:52.797Z,1010.61
2018-12-13T05:54:33.194Z,1010.56
2018-12-13T05:55:13.586Z,1010.58
2018-12-13T05:55:53.967Z,1010.55
2018-12-13T05:56:34.362Z,1010.53
2018-12-13T05:57:14.749Z,1010.58
2018-12-13T05:57:55.217Z,1010.55
2018-12-13T05:58:35.593Z,1010.55
2018-12-13T05:59:16.044Z,1010.54
2018-12-13T05:59:57.965Z,1010.46
2018-12-13T06:00:39.309Z,1010.51
2018-12-13T06:01:21.432Z,1010.51
2018-12-13T06:02:01.785Z,1010.46
2018-12-13T06:02:42.176Z,1010.47
2018-12-13T06:03:22.592Z,1010.48
2018-12-13T06:04:02.945Z,1010.44
2018-12-13T06:04:43.316Z,1010.52
2018-12-13T06:05:23.732Z,1010.53
2018-12-13T06:06:04.132Z,1010.48
2018-12-13T06:06:44.528Z,1010.54
2018-12-13T06:07:24.950Z,1010.53
2018-12-13T06:08:08.228Z,1010.59
2018-12-13T06:08:48.668Z,1010.55
2018-12-13T06:09:29.093Z,1010.59
2018-12-13T06:10:09.431Z,1010.56
2018-12-13T06:10:49.857Z,1010.56
2018-12-13T06:11:33.714Z,1010.61
2018-12-13T06:12:14.147Z,1010.56
2018-12-13T06:12:54.523Z,1010.57
2018-12-13T06:13:34.892Z,1010.57
2018-12-13T06:14:15.267Z,1010.55
2018-12-13T06:14:55.676Z,1010.56
2018-12-13T06:15:37.737Z,1010.54
2018-12-13T06:16:18.154Z,1010.56
2018-12-13T06:16:58.506Z,1010.55
2018-12-13T06:17:38.868Z,1010.58
2018-12-13T06:18:19.246Z,1010.54
2018-12-13T06:18:59.645Z,1010.56
2018-12-13T06:19:40.062Z,1010.54
2018-12-13T06:20:20.433Z,1010.54
2018-12-13T06:21:00.826Z,1010.55
2018-12-13T06:21:41.448Z,1010.54
2018-12-13T06:22:21.870Z,1010.53
2018-12-13T06:23:02.260Z,1010.55
2018-12-13T06:23:42.606Z,1010.56
2018-12-13T06:24:23.008Z,1010.56
2018-12-13T06:25:03.466Z,1010.56
2018-12-13T06:25:43.889Z,1010.57
2018-12-13T06:26:24.249Z,1010.59
2018-12-13T06:27:04.640Z,1010.59
2018-12-13T06:27:45.051Z,1010.55
2018-12-13T06:28:42.244Z,1010.57
2018-12-13T06:29:22.642Z,1010.56
2018-12-13T06:30:07.371Z,1010.55
2018-12-13T06:30:43.396Z,1010.56
2018-12-13T06:31:23.843Z,1010.57
2018-12-13T06:32:04.203Z,1010.58
2018-12-13T06:32:44.616Z,1010.52
2018-12-13T06:33:25.064Z,1010.56
2018-12-13T06:34:05.423Z,1010.54
2018-12-13T06:34:45.762Z,1010.54
2018-12-13T06:35:26.216Z,1010.57
2018-12-13T06:36:06.546Z,1010.58
2018-12-13T06:36:46.957Z,1010.61
2018-12-13T06:37:29.005Z,1010.6
2018-12-13T06:38:09.487Z,1010.6
2018-12-13T06:38:50.562Z,1010.6
2018-12-13T06:39:31.610Z,1010.62
2018-12-13T06:40:15.617Z,1010.6
2018-12-13T06:40:55.149Z,1010.52
2018-12-13T06:41:36.540Z,1010.57
2018-12-13T06:42:16.956Z,1010.6
2018-12-13T06:42:57.295Z,1010.62
2018-12-13T06:43:37.718Z,1010.63
2018-12-13T06:44:18.071Z,1010.68
2018-12-13T06:44:58.450Z,1010.65
2018-12-13T06:45:38.799Z,1010.66
2018-12-13T06:46:22.243Z,1010.65
2018-12-13T06:47:04.378Z,1010.68
2018-12-13T06:47:50.599Z,1010.72
2018-12-13T06:48:51.015Z,1010.71
2018-12-13T06:49:32.804Z,1010.72
2018-12-13T06:50:17.753Z,1010.73
2018-12-13T06:50:54.638Z,1010.74
2018-12-13T06:51:37.649Z,1010.73
2018-12-13T06:52:17.356Z,1010.75
2018-12-13T06:52:57.762Z,1010.75
2018-12-13T06:53:38.152Z,1010.74
2018-12-13T06:54:22.345Z,1010.76
2018-12-13T06:55:02.732Z,1010.76
2018-12-13T06:55:43.096Z,1010.79
2018-12-13T06:56:23.504Z,1010.78
2018-12-13T06:57:04.113Z,1010.78
2018-12-13T06:57:44.197Z,1010.78
2018-12-13T06:58:24.621Z,1010.78
2018-12-13T06:59:05.030Z,1010.79
2018-12-13T06:59:45.353Z,1010.84
2018-12-13T07:00:25.795Z,1010.83
2018-12-13T07:01:06.219Z,1010.82
2018-12-13T07:01:46.673Z,1010.84
2018-12-13T07:02:27.028Z,1010.77
2018-12-13T07:03:07.768Z,1010.78
2018-12-13T07:03:47.818Z,1010.78
2018-12-13T07:06:17.497Z,1010.79
2018-12-13T07:06:57.864Z,1010.75
2018-12-13T07:07:38.252Z,1010.74
2018-12-13T07:08:18.677Z,1010.72
2018-12-13T07:08:59.285Z,1010.76
2018-12-13T07:09:39.718Z,1010.75
2018-12-13T07:10:20.081Z,1010.8
2018-12-13T07:11:00.475Z,1010.75
2018-12-13T07:11:40.922Z,1010.8
2018-12-13T07:12:21.395Z,1010.78
2018-12-13T07:13:01.726Z,1010.75
2018-12-13T07:13:42.250Z,1010.82
2018-12-13T07:14:22.542Z,1010.8
2018-12-13T07:15:03.066Z,1010.76
2018-12-13T07:15:43.533Z,1010.8
2018-12-13T07:16:23.938Z,1010.81
2018-12-13T07:17:04.386Z,1010.8
2018-12-13T07:17:44.695Z,1010.81
2018-12-13T07:18:25.173Z,1010.8
2018-12-13T07:19:05.648Z,1010.79
2018-12-13T07:19:46.109Z,1010.8
2018-12-13T07:20:26.538Z,1010.84
2018-12-13T07:21:06.881Z,1010.84
2018-12-13T07:23:00.047Z,1010.85
2018-12-13T07:23:40.416Z,1010.84
2018-12-13T07:24:21.039Z,1010.83
2018-12-13T07:25:04.059Z,1010.84
2018-12-13T07:25:44.700Z,1010.86
2018-12-13T07:26:25.098Z,1010.87
2018-12-13T07:27:05.519Z,1010.91
2018-12-13T07:27:47.570Z,1010.82
2018-12-13T07:28:29.040Z,1010.8
2018-12-13T07:29:08.495Z,1010.85
2018-12-13T07:29:49.504Z,1010.88
2018-12-13T07:30:39.923Z,1010.87
2018-12-13T07:31:20.410Z,1010.85
2018-12-13T07:32:02.415Z,1010.87
2018-12-13T07:32:42.006Z,1010.88
2018-12-13T07:33:22.622Z,1010.88
2018-12-13T07:34:03.395Z,1010.87
2018-12-13T07:34:45.987Z,1010.85
2018-12-13T07:35:25.554Z,1010.86
2018-12-13T07:36:05.891Z,1010.9
2018-12-13T07:36:48.992Z,1010.83
2018-12-13T07:37:29.411Z,1010.92
2018-12-13T07:38:14.176Z,1010.92
2018-12-13T07:38:50.940Z,1010.9
2018-12-13T07:39:36.167Z,1010.93
2018-12-13T07:40:15.964Z,1010.93
2018-12-13T07:40:56.437Z,1010.94
2018-12-13T07:41:36.823Z,1010.88
2018-12-13T07:42:17.460Z,1010.9
2018-12-13T07:42:58.065Z,1010.95
2018-12-13T07:43:38.369Z,1010.92
2018-12-13T07:44:21.081Z,1010.95
2018-12-13T07:45:03.984Z,1010.92
2018-12-13T07:45:44.490Z,1010.95
2018-12-13T07:46:24.866Z,1010.94
2018-12-13T07:47:11.624Z,1010.98
2018-12-13T07:47:53.769Z,1010.93
2018-12-13T07:49:48.442Z,1010.97
2018-12-13T07:50:28.781Z,1011
2018-12-13T07:51:09.202Z,1011.06
2018-12-13T07:51:49.639Z,1011.04
2018-12-13T07:52:30.061Z,1011
2018-12-13T07:53:10.449Z,1010.99
2018-12-13T07:53:50.896Z,1011.02
2018-12-13T07:54:31.298Z,1011
2018-12-13T07:55:11.834Z,1010.99
2018-12-13T07:55:52.228Z,1010.97
2018-12-13T07:56:32.622Z,1010.99
2018-12-13T07:57:13.042Z,1010.95
2018-12-13T07:57:53.423Z,1010.95
2018-12-13T07:58:33.878Z,1010.96
2018-12-13T07:59:14.252Z,1010.95
2018-12-13T07:59:54.653Z,1010.98
2018-12-13T08:00:35.209Z,1010.98
2018-12-13T08:01:15.601Z,1010.99
2018-12-13T08:04:49.729Z,1011.05
2018-12-13T08:05:29.187Z,1011.02
2018-12-13T08:06:09.563Z,1011.03
2018-12-13T08:08:01.992Z,1011.07
2018-12-13T08:08:42.526Z,1011.07
2018-12-13T08:09:22.909Z,1011.09
2018-12-13T08:10:03.321Z,1011.15
2018-12-13T08:10:43.739Z,1011.16
2018-12-13T08:11:24.144Z,1011.18
2018-12-13T08:12:04.654Z,1011.17
2018-12-13T08:12:44.986Z,1011.15
2018-12-13T08:13:25.379Z,1011.18
2018-12-13T08:14:05.939Z,1011.18
2018-12-13T08:14:46.319Z,1011.22
2018-12-13T08:15:26.702Z,1011.15
2018-12-13T08:16:07.111Z,1011.21
2018-12-13T08:16:47.580Z,1011.2
2018-12-13T08:17:27.986Z,1011.2
2018-12-13T08:18:09.032Z,1011.19
2018-12-13T08:18:49.215Z,1011.21
2018-12-13T08:19:29.717Z,1011.17
2018-12-13T08:20:10.389Z,1011.2
2018-12-13T08:20:50.793Z,1011.2
2018-12-13T08:21:31.371Z,1011.17
2018-12-13T08:22:11.783Z,1011.19
2018-12-13T08:22:52.249Z,1011.14
2018-12-13T08:23:32.659Z,1011.15
2018-12-13T08:24:13.109Z,1011.14
2018-12-13T08:26:24.846Z,1011.16
2018-12-13T08:27:20.159Z,1011.21
2018-12-13T08:28:20.683Z,1011.17
2018-12-13T08:29:13.287Z,1011.19
2018-12-13T08:30:07.535Z,1011.22
2018-12-13T08:31:09.466Z,1011.17
2018-12-13T08:32:17.610Z,1011.16
2018-12-13T08:34:44.060Z,1011.19
2018-12-13T08:35:24.384Z,1011.18
2018-12-13T08:36:04.767Z,1011.18
2018-12-13T08:36:45.153Z,1011.18
2018-12-13T08:37:25.576Z,1011.18
2018-12-13T08:38:06.031Z,1011.19
2018-12-13T08:38:46.522Z,1011.18
2018-12-13T08:39:27.140Z,1011.15
2018-12-13T08:40:07.672Z,1011.21
2018-12-13T08:40:48.085Z,1011.2
2018-12-13T08:43:17.857Z,1011.23
2018-12-13T08:44:01.170Z,1011.2
2018-12-13T08:44:41.518Z,1011.23
2018-12-13T08:45:22.792Z,1011.22
2018-12-13T08:46:03.497Z,1011.23
2018-12-13T08:46:43.999Z,1011.26
2018-12-13T08:47:24.437Z,1011.27
2018-12-13T08:48:04.780Z,1011.26
2018-12-13T08:48:45.177Z,1011.29
2018-12-13T08:49:25.652Z,1011.31
2018-12-13T08:50:06.038Z,1011.26
2018-12-13T08:50:46.830Z,1011.25
2018-12-13T08:51:27.246Z,1011.27
2018-12-13T08:52:07.705Z,1011.28
2018-12-13T08:52:48.564Z,1011.28
2018-12-13T08:53:28.948Z,1011.25
2018-12-13T08:54:10.119Z,1011.3
2018-12-13T08:54:53.457Z,1011.26
2018-12-13T08:55:34.138Z,1011.24
2018-12-13T08:56:14.897Z,1011.21
2018-12-13T08:56:55.273Z,1011.18
2018-12-13T08:58:53.575Z,1011.17
2018-12-13T08:59:33.939Z,1011.13
2018-12-13T09:00:14.627Z,1011.09
2018-12-13T09:00:55.003Z,1011.12
2018-12-13T09:01:35.508Z,1011.13
2018-12-13T09:02:15.831Z,1011.14
2018-12-13T09:02:56.246Z,1011.19
2018-12-13T09:03:37.464Z,1011.1
2018-12-13T09:04:18.017Z,1011.12
2018-12-13T09:04:58.877Z,1011.13
2018-12-13T09:05:39.284Z,1011.07
2018-12-13T09:06:19.600Z,1011.14
2018-12-13T09:07:00.007Z,1011.13
2018-12-13T09:07:40.580Z,1011.13
2018-12-13T09:08:21.838Z,1011.13
2018-12-13T09:09:02.255Z,1011.18
2018-12-13T09:09:42.663Z,1011.17
2018-12-13T09:10:23.244Z,1011.15
2018-12-13T09:11:03.521Z,1011.18
2018-12-13T09:11:44.025Z,1011.19
2018-12-13T09:12:24.417Z,1011.16
2018-12-13T09:13:04.891Z,1011.16
2018-12-13T09:13:45.259Z,1011.15
2018-12-13T09:14:25.697Z,1011.18
2018-12-13T09:15:06.105Z,1011.16
2018-12-13T09:15:46.536Z,1011.17
2018-12-13T09:16:31.398Z,1011.19
2018-12-13T09:17:07.457Z,1011.15
2018-12-13T09:19:13.643Z,1011.16
2018-12-13T09:19:54.588Z,1011.12
2018-12-13T09:20:34.238Z,1011.11